Terminal Aerodrome Forecast
Issued by NWS

Home | Current Version | Previous Version | Graphics & Text | Print | Product List | Glossary On
Versions: 1 2 3 4 5 6 7 8 9 10 11 12 13 14 15 16 17 18 19 20 21
458
FTUS43 KGRB 261953 AAB
TAFMTW
TAF AMD
KMTW 261953Z 2620/2718 21010KT P6SM VCSH SCT020 BKN070
      TEMPO 2623/2624 -TSRA OVC035CB
     FM270700 01005KT 5SM BR SCT018
      TEMPO 2708/2712 3SM BR BKN018
     FM271300 04010KT P6SM SCT020=

USA.gov is the U.S. government's official web portal to all federal, state and local government web resources and services.